Home   Weather   USA   Utqiaġvik   Past weeks
Flag for USA

Past Weather in Utqiaġvik, Alaska, USA — Yesterday and Last 2 Weeks

Currently: 43 °F. Sunny. (Weather station: Post Rogers Memorial Airport, USA). See more current weather

Past Weather in Utqiaġvik — Graph

°F

Utqiaġvik Temperature Yesterday

Maximum temperature yesterday: 49 °F (at 2:26 pm)
Minimum temperature yesterday: 39 °F (at 11:06 am)
Average temperature yesterday: 45 °F

High & Low Weather Summary for the Past Weeks

 TemperatureHumidityPressure
High66 °F (Jun 20, 2:53 pm)97% (Jun 15, 6:53 am)30.20 "Hg (Jun 15, 6:53 am)
Low26 °F (Jun 12, 8:11 am)51% (Jun 20, 5:53 pm)29.75 "Hg (Jun 17, 5:00 pm)
Average38 °F86%29.96 "Hg
* Reported Jun 9 10:29 pm — Jun 24 10:53 pm, Utqiaġvik. Weather by CustomWeather, © 2022

Note: Actual official high and low records may vary slightly from our data, if they occured in-between our weather recording intervals... More about our weather records

Utqiaġvik Weather History for the Previous 24 Hours

Scroll right to see more
 ConditionsComfort  
Time TempWeatherWind HumidityBarometerVisibility
10:53 pm
Fri, Jun 24
43 °FSunny.9 mph89%30.19 "Hg10 mi
9:53 pm43 °FOvercast.9 mph89%30.19 "Hg10 mi
8:53 pm44 °FOvercast.8 mph85%30.20 "Hg10 mi
8:32 pm46 °FOvercast.7 mph77%30.20 "Hg10 mi
8:04 pm46 °FMostly cloudy.6 mph79%30.20 "Hg10 mi
7:53 pm45 °FMore clouds than sun.9 mph82%30.20 "Hg10 mi
6:53 pm45 °FOvercast.6 mph82%30.19 "Hg10 mi
5:53 pm48 °FOvercast.6 mph68%30.20 "Hg10 mi
4:53 pm49 °FLight rain. Mostly cloudy.3 mph69%30.19 "Hg10 mi
2:53 pm49 °FOvercast.3 mph69%30.19 "Hg10 mi
2:26 pm49 °FMore clouds than sun.3 mph69%30.18 "Hg10 mi
1:53 pm48 °FMostly cloudy.No wind83%30.19 "Hg10 mi
12:53 pm45 °FOvercast.5 mph93%30.18 "Hg10 mi
12:19 pm43 °FFog.5 mph97%30.18 "Hg4 mi
11:58 am43 °FFog.6 mph93%30.18 "Hg2 mi
11:31 am40 °FFog.7 mph97%30.18 "Hg0 mi
11:06 am39 °FLight rain. Fog.7 mph93%30.17 "Hg0 mi
9:53 am44 °FFog.6 mph93%30.17 "Hg2 mi
8:53 am45 °FLow clouds.5 mph86%30.18 "Hg10 mi
7:53 am45 °FLow clouds.5 mph82%30.18 "Hg10 mi
6:53 am45 °FLow clouds.No wind82%30.19 "Hg10 mi
5:53 am44 °FLow clouds.No wind85%30.19 "Hg10 mi
4:53 am44 °FOvercast.6 mph85%30.19 "Hg10 mi
4:13 am45 °FMore clouds than sun.6 mph90%30.19 "Hg10 mi
4:00 am44 °FMostly cloudy.3 mph93%30.19 "Hg8 mi
2:53 am45 °FMostly cloudy.6 mph93%30.18 "Hg10 mi
2:27 am44 °FMostly cloudy.5 mph93%30.18 "Hg10 mi
2:18 am44 °FMore clouds than sun.6 mph93%30.19 "Hg8 mi
1:53 am43 °FFog.5 mph93%30.19 "Hg2 mi
1:22 am43 °FLight rain. Fog.3 mph93%30.18 "Hg5 mi
12:53 am43 °FFog.No wind93%30.18 "Hg5 mi
12:09 am41 °FFog.5 mph93%30.18 "Hg1 mi
Weather by CustomWeather, © 2022

See weather overview